M I D A S
Marine Information and Data Acquisition System
Tripno 1732 of the Zeeleeuw from 2009-07-08 06:33:02 to 2009-07-08 17:29:49
Back to CruiseResearch ActivitiesStationsMapUnderway DataData graphs

EquipmentUnitsComment
TimeDGPSUTC
LatitudeDGPSDM.mWGS84
LongitudeDGPSDM.mWGS84
TemperatureSBE03/SBE38deg celciusITS90
ConductivitySBE21S/mITS90
SalinitySBE21 Practical Salinity Units
ChlorophylAChelsea fluorimeterg/lCalibrated in Aceton
Missing or incorrect values are displayed as -999
Sea surface data collected by the RV Zeeleeuw from 2009-07-08 06:36:07 to 2009-07-08 17:39:20
Time Latitude Longitude Temperature Conductivity Salinity ChlorophylA
2009-07-08 06:37:16 51°13.679 2°55.894 22.5332 2.247454 14.956851 4.780225
2009-07-08 06:38:16 51°13.694 2°55.804 22.5486 2.248281 14.963132 4.780225
2009-07-08 06:39:16 51°13.704 2°55.764 22.512 2.249211 14.97097 4.780225
2009-07-08 06:40:16 51°13.699 2°55.742 22.583 2.251691 14.98928 4.745401
2009-07-08 06:41:15 51°13.747 2°55.718 22.5194 2.252207 14.992231 4.780225
2009-07-08 06:42:13 51°13.836 2°55.636 22.5479 2.249521 14.973494 4.780225
2009-07-08 06:43:16 51°13.956 2°55.543 22.5445 2.248177 14.963723 4.780225
2009-07-08 06:44:14 51°14.069 2°55.454 22.5597 2.249831 14.976555 4.780225
2009-07-08 06:45:12 51°14.181 2°55.354 22.5512 2.250967 14.985362 4.780225
2009-07-08 06:46:12 51°14.287 2°55.211 22.5589 2.249107 14.9721 4.780225
2009-07-08 06:47:12 51°14.385 2°55.026 22.511 2.256857 15.02957 4.780225
2009-07-08 06:48:12 51°14.494 2°54.84 22.5305 2.254997 15.014146 4.780225
2009-07-08 06:49:12 51°14.643 2°54.674 22.501 2.254067 15.007918 4.780225
2009-07-08 06:50:12 51°14.8 2°54.516 22.487 2.256444 15.043308 4.780225
2009-07-08 06:51:12 51°14.952 2°54.351 22.4625 2.256444 15.043578 4.780225
2009-07-08 06:52:12 51°15.102 2°54.187 22.4813 2.257684 15.062362 4.780225
2009-07-08 06:53:12 51°15.25 2°54.017 22.4785 2.252105 15.054464 4.780225
2009-07-08 06:54:12 51°15.4 2°53.851 22.4785 2.255515 15.058734 4.780225
2009-07-08 06:55:12 51°15.552 2°53.681 22.4829 2.254379 15.105965 4.780225
2009-07-08 06:56:12 51°15.702 2°53.508 22.485 2.255309 15.089847 4.780225
2009-07-08 06:57:12 51°15.857 2°53.342 22.4893 2.256135 15.102711 4.780225
2009-07-08 06:58:12 51°16.016 2°53.191 22.4941 2.255929 15.104201 4.780225
2009-07-08 06:59:12 51°16.178 2°53.046 22.4955 2.253759 15.082054 4.780225
2009-07-08 07:00:12 51°16.344 2°52.916 22.5003 2.255825 15.105083 4.780225
2009-07-08 07:01:12 51°16.517 2°52.816 22.4957 2.251796 15.080227 4.780225
2009-07-08 07:02:12 51°16.693 2°52.743 22.5079 2.256549 15.134454 4.780225
2009-07-08 07:03:12 51°16.869 2°52.687 22.5229 2.257272 15.119223 4.780225
2009-07-08 07:04:12 51°17.043 2°52.647 22.5305 2.240843 15.000626 4.780225
2009-07-08 07:05:12 51°17.215 2°52.656 22.5309 2.245286 15.034492 4.815049
2009-07-08 07:06:12 51°17.35 2°52.811 22.5265 2.311111 15.530195 4.849873
2009-07-08 07:07:12 51°17.451 2°53.032 22.5305 2.193935 14.67434 4.849873
2009-07-08 07:08:12 51°17.559 2°53.24 22.5411 2.192901 14.626818 4.849873
2009-07-08 07:09:12 51°17.671 2°53.436 22.5412 2.175648 14.516892 4.849873
2009-07-08 07:10:12 51°17.779 2°53.639 22.5566 2.190319 14.628593 4.849873
2009-07-08 07:11:11 51°17.886 2°53.838 22.5743 2.18226 14.577725 4.849873
2009-07-08 07:12:11 51°17.993 2°54.04 22.5723 2.185669 14.585983 4.849873
2009-07-08 07:13:11 51°18.09 2°54.253 22.5842 2.174925 14.51818 4.849873
2009-07-08 07:14:11 51°18.17 2°54.482 22.5995 2.177198 14.535539 4.815049
2009-07-08 07:15:11 51°18.251 2°54.711 22.6115 2.178541 14.560338 4.815049
2009-07-08 07:16:11 51°18.345 2°54.926 22.6172 2.177921 14.547124 4.780225
2009-07-08 07:17:11 51°18.44 2°55.137 22.6103 2.175751 14.529984 4.780225
2009-07-08 07:18:13 51°18.545 2°55.349 22.6238 2.170793 14.515091 4.780225
2009-07-08 07:19:11 51°18.64 2°55.553 22.65 2.180297 14.577644 4.745401
2009-07-08 07:20:12 51°18.738 2°55.768 22.6557 2.179574 14.573419 4.710577
2009-07-08 07:21:11 51°18.834 2°55.973 22.6579 2.172859 14.518343 4.710577
2009-07-08 07:22:13 51°18.934 2°56.188 22.6822 2.174512 14.530931 4.675753
2009-07-08 07:23:12 51°19.03 2°56.394 22.6798 2.182467 14.593224 4.675753
2009-07-08 07:24:12 51°19.126 2°56.601 22.6859 2.17007 14.514544 4.675753
2009-07-08 07:25:12 51°19.222 2°56.811 22.7014 2.181021 14.588738 4.640929
2009-07-08 07:26:12 51°19.315 2°57.024 22.7129 2.166557 14.493094 4.640929
2009-07-08 07:27:12 51°19.413 2°57.231 22.7152 2.174512 14.544887 4.606104
2009-07-08 07:28:12 51°19.51 2°57.44 22.7188 2.169966 14.514579 4.606104
2009-07-08 07:29:12 51°19.589 2°57.666 22.7288 2.176372 14.565863 4.57128
2009-07-08 07:30:12 51°19.656 2°57.903 22.7334 2.176268 14.558508 4.57128
2009-07-08 07:31:12 51°19.723 2°58.139 22.7387 2.174409 14.563402 4.536456
2009-07-08 07:32:12 51°19.788 2°58.373 22.7457 2.175443 14.57837 4.501632
2009-07-08 07:33:12 51°19.853 2°58.605 22.7603 2.171413 14.529885 4.501632
2009-07-08 07:34:11 51°19.917 2°58.831 22.7857 2.166351 14.50342 4.501632
2009-07-08 07:35:12 51°19.986 2°59.065 22.7676 2.166661 14.515699 4.466808
2009-07-08 07:36:12 51°20.053 2°59.295 22.7982 2.173479 14.554752 4.466808
2009-07-08 07:37:12 51°20.122 2°59.522 22.794 2.165215 14.515139 4.466808
2009-07-08 07:38:12 51°20.187 2°59.749 22.8077 2.165111 14.493568 4.431984
2009-07-08 07:39:12 51°20.254 2°59.977 22.8059 2.163872 14.497663 4.431984
2009-07-08 07:40:12 51°20.318 3°0.203 22.8191 2.163148 14.488424 4.431984
2009-07-08 07:41:12 51°20.384 3°0.427 22.8238 2.161392 14.477157 4.39716
2009-07-08 07:42:12 51°20.447 3°0.652 22.8463 2.164595 14.511392 4.39716
2009-07-08 07:43:12 51°20.51 3°0.877 22.8421 2.171414 14.559729 4.39716
2009-07-08 07:44:12 51°20.574 3°1.1 22.8757 2.162012 14.486165 4.362336
2009-07-08 07:45:12 51°20.637 3°1.325 22.863 2.166351 14.525042 4.362336
2009-07-08 07:46:12 51°20.703 3°1.55 22.8739 2.164078 14.502337 4.327512
2009-07-08 07:47:11 51°20.765 3°1.758 22.9066 2.167798 14.541186 4.327512
2009-07-08 07:48:12 51°20.828 3°1.977 22.8868 2.165215 14.536286 4.327512
2009-07-08 07:49:12 51°20.89 3°2.189 22.9279 2.164595 14.525657 4.327512
2009-07-08 07:50:12 51°20.95 3°2.4 22.93 2.156744 14.470241 4.327512
2009-07-08 07:51:12 51°21.012 3°2.608 22.9341 2.15881 14.485378 4.327512
2009-07-08 07:52:11 51°21.07 3°2.814 22.9665 2.160153 14.494427 4.292688
2009-07-08 07:53:12 51°21.128 3°3.024 22.9474 2.159327 14.489427 4.292688
2009-07-08 07:54:12 51°21.183 3°3.236 22.9585 2.151579 14.442661 4.327512
2009-07-08 07:55:12 51°21.238 3°3.438 22.9745 2.163459 14.519973 4.292688
2009-07-08 07:56:12 51°21.281 3°3.605 22.964 2.160256 14.496768 4.292688
2009-07-08 07:57:12 51°21.319 3°3.759 22.9881 2.155814 14.481098 4.292688
2009-07-08 07:58:12 51°21.358 3°3.914 23.0029 2.163562 14.53264 4.257864
2009-07-08 07:59:12 51°21.395 3°4.065 23.0031 2.159327 14.500253 4.292688
2009-07-08 08:00:12 51°21.433 3°4.216 23.0239 2.16067 14.511953 4.257864
2009-07-08 08:01:12 51°21.469 3°4.366 23.0214 2.160257 14.507335 4.292688
2009-07-08 08:02:12 51°21.505 3°4.517 23.0623 2.157571 14.49874 4.292688
2009-07-08 08:03:12 51°21.578 3°4.618 23.0529 2.15912 14.513553 4.292688
2009-07-08 08:04:12 51°21.705 3°4.714 23.045 2.152405 14.460579 4.292688
2009-07-08 08:05:12 51°21.819 3°4.888 23.0644 2.159017 14.502474 4.327512
2009-07-08 08:06:11 51°21.879 3°5.119 23.0526 2.152612 14.457875 4.292688
2009-07-08 08:07:12 51°21.914 3°5.381 23.0597 2.155918 14.489255 4.292688
2009-07-08 08:08:12 51°21.95 3°5.634 23.1066 2.16005 14.516669 4.292688
2009-07-08 08:09:12 51°21.984 3°5.888 23.1063 2.158604 14.507114 4.292688
2009-07-08 08:10:11 51°22.018 3°6.14 23.1063 2.151476 14.459034 4.327512
2009-07-08 08:11:12 51°22.056 3°6.394 23.1102 2.153542 14.468915 4.292688
2009-07-08 08:12:12 51°22.086 3°6.648 23.1315 2.153645 14.455435 4.327512
2009-07-08 08:13:12 51°22.1 3°6.907 23.164 2.15974 14.51413 4.327512
2009-07-08 08:14:12 51°22.116 3°7.165 23.1544 2.152922 14.471232 4.327512
2009-07-08 08:15:12 51°22.133 3°7.429 23.1629 2.16005 14.529393 4.327512
2009-07-08 08:16:11 51°22.168 3°7.677 23.1945 2.161497 14.543735 4.327512
2009-07-08 08:17:12 51°22.236 3°7.902 23.1709 2.154678 14.488354 4.327512
2009-07-08 08:18:12 51°22.272 3°8.024 23.1915 2.155195 14.497176 4.362336
2009-07-08 08:19:12 51°22.292 3°8.127 23.2163 2.161497 14.554638 4.362336
2009-07-08 08:20:12 51°22.32 3°8.282 23.2133 2.154472 14.502197 4.362336
2009-07-08 08:21:11 51°22.362 3°8.502 23.2075 2.150753 14.47169 4.362336
2009-07-08 08:22:12 51°22.404 3°8.753 23.2364 2.153955 14.490189 4.39716
2009-07-08 08:23:12 51°22.44 3°9.004 23.2508 2.152819 14.486076 4.39716
2009-07-08 08:24:12 51°22.476 3°9.254 23.2535 2.147034 14.437773 4.39716
2009-07-08 08:25:12 51°22.513 3°9.506 23.2654 2.161084 14.550269 4.39716
2009-07-08 08:26:12 51°22.552 3°9.754 23.2746 2.157468 14.519175 4.39716
2009-07-08 08:27:12 51°22.57 3°10.01 23.2836 2.154472 14.507768 4.39716
2009-07-08 08:28:12 51°22.549 3°10.272 23.2975 2.153645 14.495328 4.39716
2009-07-08 08:29:12 51°22.481 3°10.528 23.2922 2.152923 14.50115 4.466808
2009-07-08 08:30:12 51°22.415 3°10.784 23.304 2.152303 14.492348 4.466808
2009-07-08 08:31:12 51°22.393 3°11.044 23.3191 2.146931 14.454709 4.466808
2009-07-08 08:32:12 51°22.404 3°11.171 23.3409 2.153852 14.507457 4.501632
2009-07-08 08:33:11 51°22.428 3°11.191 23.3568 2.151993 14.499884 4.57128
2009-07-08 08:34:12 51°22.436 3°11.186 23.3494 2.148997 14.481557 4.57128
2009-07-08 08:35:12 51°22.434 3°11.177 23.3803 2.149927 14.481238 4.606104
2009-07-08 08:36:12 51°22.426 3°11.169 23.3723 2.147757 14.473231 4.606104
2009-07-08 08:37:11 51°22.416 3°11.163 23.3687 2.148481 14.485981 4.640929
2009-07-08 08:38:12 51°22.402 3°11.157 23.3925 2.151786 14.501285 4.710577
2009-07-08 08:39:12 51°22.386 3°11.148 23.3765 0.064436 0.349856 4.710577
2009-07-08 08:40:12 51°22.372 3°11.138 23.3994 0.055689 0.30132 4.745401
2009-07-08 08:41:12 51°22.357 3°11.131 23.4189 0.051366 0.277407 4.780225
2009-07-08 08:42:12 51°22.344 3°11.124 23.4384 0.048485 0.261526 4.815049
2009-07-08 08:43:12 51°22.331 3°11.118 23.4559 0.046324 0.249663 4.849873
2009-07-08 08:44:12 51°22.354 3°11.127 23.4781 0.044677 0.240648 4.884697
2009-07-08 08:45:12 51°22.466 3°11.145 23.4938 0.04334 0.233346 4.954345
2009-07-08 08:46:12 51°22.609 3°11.115 23.5077 0.042208 0.227173 4.954345
2009-07-08 08:47:12 51°22.774 3°11.031 23.5218 0.041384 0.222697 4.989169
2009-07-08 08:48:12 51°22.943 3°10.937 23.5431 0.040561 0.218228 5.023993
2009-07-08 08:49:11 51°23.1 3°10.808 23.5582 0.039841 0.214314 5.058817
2009-07-08 08:50:12 51°23.262 3°10.664 23.583 0.039326 0.211531 5.093641
2009-07-08 08:51:12 51°23.421 3°10.527 23.5988 0.038709 0.208183 5.128465
2009-07-08 08:52:12 51°23.555 3°10.418 23.6182 0.038297 0.205957 5.163289
2009-07-08 08:53:12 51°23.586 3°10.482 23.6316 0.037783 0.203167 5.163289
2009-07-08 08:54:11 51°23.533 3°10.515 23.6567 0.037371 0.200943 5.198113
2009-07-08 08:55:12 51°23.478 3°10.465 23.7409 0.037062 0.199284 5.232937
2009-07-08 08:56:12 51°23.436 3°10.383 23.7318 0.036651 0.197017 5.267761
2009-07-08 08:57:12 51°23.399 3°10.275 23.7202 0.036342 0.19536 5.302586
2009-07-08 08:58:12 51°23.391 3°10.157 23.7565 0.036033 0.193695 5.33741
2009-07-08 08:59:11 51°23.398 3°10.044 23.7692 0.035725 0.192025 5.372234
2009-07-08 09:00:12 51°23.407 3°9.93 23.7962 0.035519 0.190915 5.407058
2009-07-08 09:01:12 51°23.418 3°9.825 23.8138 0.03521 0.18924 5.407058
2009-07-08 09:02:12 51°23.453 3°9.763 23.8382 0.035004 0.188124 5.476706
2009-07-08 09:03:12 51°23.504 3°9.751 23.866 0.034798 0.187006 5.476706
2009-07-08 09:04:12 51°23.551 3°9.78 23.8832 0.034593 0.185891 5.51153
2009-07-08 09:05:12 51°23.593 3°9.831 23.9146 0.034387 0.184776 5.546354
2009-07-08 09:06:11 51°23.63 3°9.888 23.9275 0.034284 0.18423 5.546354
2009-07-08 09:07:12 51°23.653 3°9.964 23.9625 0.034078 0.183128 5.581178
2009-07-08 09:08:12 51°23.67 3°10.037 23.9807 0.033872 0.182023 5.581178
2009-07-08 09:09:12 51°23.693 3°10.102 24.0012 0.033769 0.181477 5.616002
2009-07-08 09:10:12 51°23.716 3°10.17 24.0241 0.033563 0.180372 5.616002
2009-07-08 09:11:12 51°23.732 3°10.243 24.047 0.033461 0.179823 5.650826
2009-07-08 09:12:12 51°23.732 3°10.328 24.0688 0.033255 0.178719 5.650826
2009-07-08 09:13:12 51°23.727 3°10.416 19.7688 0.226128 1.305262 7.670621
2009-07-08 09:14:12 51°23.736 3°10.496 19.6803 4.294436 30.941597 5.407058
2009-07-08 09:15:12 51°23.75 3°10.573 19.6726 4.283023 30.963056 5.616002
2009-07-08 09:16:12 51°23.764 3°10.648 19.6709 4.276381 30.924317 5.999067
2009-07-08 09:17:12 51°23.782 3°10.723 19.6723 4.279183 30.950928 6.242835
2009-07-08 09:18:12 51°23.799 3°10.8 19.6719 4.292674 31.060422 6.591076
2009-07-08 09:19:12 51°23.811 3°10.879 19.666 4.290599 31.047101 6.97414
2009-07-08 09:20:12 51°23.822 3°10.959 19.6666 4.295372 31.090826 7.496501
2009-07-08 09:21:11 51°23.833 3°11.037 19.6645 4.295372 31.0914 7.844741
2009-07-08 09:22:12 51°23.847 3°11.117 19.6643 4.297033 31.105965 8.08851
2009-07-08 09:23:12 51°23.858 3°11.197 19.6647 4.298278 31.115452 8.26263
2009-07-08 09:24:12 51°23.87 3°11.279 19.661 4.299316 31.124413 8.401926
2009-07-08 09:25:12 51°23.88 3°11.361 19.6589 4.300146 31.133998 8.43675
2009-07-08 09:26:11 51°23.893 3°11.443 19.6572 4.301184 31.144111 8.471574
2009-07-08 09:27:12 51°23.905 3°11.531 19.6582 4.301391 31.14694 8.541223
2009-07-08 09:28:12 51°23.89 3°11.619 19.66 4.305231 31.176827 8.610871
2009-07-08 09:29:12 51°23.834 3°11.675 19.6534 4.305646 31.179606 8.715343
2009-07-08 09:30:12 51°23.771 3°11.687 19.6552 4.301807 31.151447 8.715343
2009-07-08 09:31:11 51°23.71 3°11.674 19.6609 4.302325 31.152763 8.576047
2009-07-08 09:32:12 51°23.651 3°11.637 19.6635 4.300873 31.137568 8.576047
2009-07-08 09:33:12 51°23.598 3°11.583 19.6697 4.300457 31.130762 8.541223
2009-07-08 09:34:12 51°23.561 3°11.532 19.674 4.299108 31.116412 8.576047
2009-07-08 09:35:12 51°23.533 3°11.496 19.675 4.297759 31.10379 8.506398
2009-07-08 09:36:11 51°23.509 3°11.469 19.6767 4.297863 31.102905 8.610871
2009-07-08 09:37:12 51°23.486 3°11.448 19.6797 4.297655 31.099505 8.471574
2009-07-08 09:38:12 51°23.461 3°11.429 19.6806 4.297448 31.09668 8.401926
2009-07-08 09:39:12 51°23.431 3°11.401 19.6832 4.29558 31.078724 8.367102
2009-07-08 09:40:11 51°23.405 3°11.294 19.6823 4.295372 31.077048 8.576047
2009-07-08 09:41:12 51°23.442 3°11.192 19.6857 4.292155 31.051071 8.506398
2009-07-08 09:42:12 51°23.47 3°11.063 19.6945 4.294023 31.06386 8.610871
2009-07-08 09:43:12 51°23.528 3°10.841 19.6883 4.293608 31.056495 8.715343
2009-07-08 09:44:12 51°23.605 3°10.577 19.6876 4.293815 31.060464 8.645695
2009-07-08 09:45:12 51°23.682 3°10.31 19.6815 4.294127 31.065845 8.645695
2009-07-08 09:46:12 51°23.769 3°10.056 19.6795 4.30575 31.162595 8.541223
2009-07-08 09:47:11 51°23.918 3°9.95 19.6781 4.312288 31.216576 8.471574
2009-07-08 09:48:11 51°24.088 3°9.884 19.6629 4.316439 31.251858 8.401926
2009-07-08 09:49:12 51°24.266 3°9.826 19.6652 4.314571 31.249456 8.750167
2009-07-08 09:50:12 51°24.426 3°9.748 19.5924 4.326818 31.36415 10.386897
2009-07-08 09:51:11 51°24.565 3°9.611 19.5934 4.347783 31.568347 12.580813
2009-07-08 09:52:11 51°24.649 3°9.381 19.5825 4.349963 31.586607 12.720109
2009-07-08 09:53:12 51°24.692 3°9.114 19.5716 4.352039 31.611637 13.172822
2009-07-08 09:54:12 51°24.737 3°8.848 19.564 4.354322 31.636023 14.322015
2009-07-08 09:55:12 51°24.791 3°8.59 19.5355 4.355879 31.658043 14.635432
2009-07-08 09:56:12 51°24.857 3°8.334 19.515 4.358889 31.70187 15.122969
2009-07-08 09:57:12 51°24.94 3°8.103 19.5147 4.36055 31.727721 15.436385
2009-07-08 09:58:12 51°25.056 3°7.952 19.5336 4.360654 31.726799 15.297089
2009-07-08 09:59:12 51°25.204 3°7.949 19.5639 4.361277 31.717146 15.262265
2009-07-08 10:00:12 51°25.338 3°8.059 19.59 4.361899 31.699279 15.680154
2009-07-08 10:01:11 51°25.454 3°8.225 19.6039 4.362314 31.687384 15.958746
2009-07-08 10:02:12 51°25.575 3°8.396 19.622 4.36003 31.657132 15.749802
2009-07-08 10:03:12 51°25.696 3°8.563 19.6412 4.357331 31.621786 14.53096
2009-07-08 10:04:12 51°25.796 3°8.769 19.6615 4.354736 31.585562 13.312118
2009-07-08 10:05:12 51°25.892 3°8.982 19.6854 4.349858 31.529144 12.30222
2009-07-08 10:06:12 51°25.987 3°9.2 19.7067 4.349027 31.506124 11.849508
2009-07-08 10:07:12 51°26.084 3°9.416 19.729 4.343319 31.444849 11.327147
2009-07-08 10:08:12 51°26.181 3°9.637 19.7427 4.34363 31.431707 11.01373
2009-07-08 10:09:12 51°26.28 3°9.855 19.7422 4.348923 31.46578 10.66549
2009-07-08 10:10:12 51°26.374 3°10.083 19.7393 4.347262 31.452942 10.247601
2009-07-08 10:11:12 51°26.449 3°10.335 19.7405 4.348196 31.46223 10.456545
2009-07-08 10:12:12 51°26.52 3°10.593 19.7433 4.347989 31.458812 10.003833
2009-07-08 10:13:12 51°26.594 3°10.848 19.7435 4.3483 31.458428 9.969009
2009-07-08 10:14:12 51°26.666 3°11.104 19.7377 4.347574 31.454298 10.143129
2009-07-08 10:15:12 51°26.741 3°11.358 19.7359 4.346847 31.451327 10.212777
2009-07-08 10:16:12 51°26.816 3°11.61 19.7347 4.346743 31.451649 10.247601
2009-07-08 10:17:12 51°26.891 3°11.867 19.737 4.345809 31.444681 10.212777
2009-07-08 10:18:12 51°26.961 3°12.126 19.7341 4.345705 31.442682 10.143129
2009-07-08 10:19:12 51°27.006 3°12.407 19.7408 4.344356 31.43352 10.143129
2009-07-08 10:20:12 51°27.052 3°12.69 19.745 4.343733 31.422694 10.212777
2009-07-08 10:21:11 51°27.097 3°12.969 19.7457 4.343526 31.418121 10.177953
2009-07-08 10:22:11 51°27.147 3°13.248 19.7392 4.342695 31.411993 10.108305
2009-07-08 10:23:12 51°27.199 3°13.53 19.7246 4.340931 31.403531 9.899361
2009-07-08 10:24:12 51°27.233 3°13.79 19.7185 4.338233 31.392152 9.829713
2009-07-08 10:25:12 51°27.177 3°13.906 19.7181 4.336261 31.377955 9.72524
2009-07-08 10:26:12 51°27.11 3°13.92 19.7149 4.335223 31.369569 9.760064
2009-07-08 10:27:12 51°27.052 3°13.902 19.7205 4.334497 31.366014 9.760064
2009-07-08 10:28:12 51°27.003 3°13.858 19.7212 4.335119 31.366995 9.794888
2009-07-08 10:29:12 51°26.964 3°13.785 19.7249 4.335638 31.370609 9.794888
2009-07-08 10:30:12 51°26.937 3°13.7 19.7224 4.336365 31.3759 9.794888
2009-07-08 10:31:12 51°26.913 3°13.611 19.7227 4.336676 31.379573 9.969009
2009-07-08 10:32:11 51°26.88 3°13.528 19.7247 4.337403 31.384285 10.038657
2009-07-08 10:33:12 51°26.847 3°13.44 19.7291 4.338129 31.38784 9.969009
2009-07-08 10:34:12 51°26.835 3°13.356 19.7319 4.338856 31.391394 10.108305
2009-07-08 10:35:12 51°26.841 3°13.265 19.7354 4.339582 31.394947 10.282425
2009-07-08 10:36:12 51°26.85 3°13.19 19.7384 4.340205 31.39882 10.49137
2009-07-08 10:37:11 51°26.862 3°13.119 19.7397 4.340827 31.400956 10.66549
2009-07-08 10:38:11 51°26.873 3°13.038 19.7426 4.341243 31.403731 10.317249
2009-07-08 10:39:12 51°26.875 3°12.95 19.739 4.341969 31.407283 10.317249
2009-07-08 10:40:12 51°26.869 3°12.849 19.7356 4.342073 31.410438 10.49137
2009-07-08 10:41:11 51°26.858 3°12.754 19.7356 4.34228 31.413852 10.456545
2009-07-08 10:42:12 51°26.845 3°12.679 19.7307 4.342696 31.418364 10.317249
2009-07-08 10:43:12 51°26.834 3°12.607 19.7305 4.343111 31.422877 10.073481
2009-07-08 10:44:11 51°26.826 3°12.522 19.7276 4.343318 31.425134 10.282425
2009-07-08 10:45:11 51°26.82 3°12.429 19.7212 4.34363 31.429968 10.282425
2009-07-08 10:46:12 51°26.81 3°12.341 19.7176 4.343941 31.437122 10.282425
2009-07-08 10:47:12 51°26.777 3°12.256 19.7068 4.344668 31.447054 10.177953
2009-07-08 10:48:12 51°26.721 3°12.181 19.705 4.344979 31.456534 10.143129
2009-07-08 10:49:12 51°26.646 3°12.128 19.7063 4.345498 31.46131 10.143129
2009-07-08 10:50:12 51°26.566 3°12.088 19.7155 4.34664 31.465896 10.038657
2009-07-08 10:51:12 51°26.494 3°12.066 19.7219 4.346951 31.46435 10.247601
2009-07-08 10:52:12 51°26.433 3°12.057 19.729 4.347159 31.460224 10.282425
2009-07-08 10:53:12 51°26.379 3°12.054 19.7373 4.347366 31.456681 10.352073
2009-07-08 10:54:12 51°26.325 3°12.051 19.7414 4.347366 31.453201 10.49137
2009-07-08 10:55:12 51°26.269 3°12.046 19.7459 4.347573 31.450239 10.456545
2009-07-08 10:56:12 51°26.214 3°12.042 19.751 4.347677 31.448759 10.456545
2009-07-08 10:57:12 51°26.158 3°12.038 19.7527 4.347366 31.445085 10.804786
2009-07-08 10:58:12 51°26.103 3°12.033 19.7587 4.347366 31.43987 10.804786
2009-07-08 10:59:12 51°26.05 3°12.028 19.7623 4.347781 31.439746 10.595842
2009-07-08 11:00:12 51°25.998 3°12.023 19.7646 4.347885 31.438268 10.769962
2009-07-08 11:01:12 51°25.945 3°12.011 19.7671 4.347781 31.435113 11.01373
2009-07-08 11:02:12 51°25.892 3°11.985 19.7677 4.347884 31.433635 11.048554
2009-07-08 11:03:12 51°25.85 3°11.978 19.77 4.347884 31.431898 10.944082
2009-07-08 11:04:12 51°25.815 3°11.981 19.7721 4.347469 31.428546 11.118203
2009-07-08 11:05:12 51°25.782 3°11.989 19.7736 4.347677 31.429643 11.083378
2009-07-08 11:06:12 51°25.752 3°11.942 19.7769 4.347365 31.426551 11.570915
2009-07-08 11:07:12 51°25.803 3°11.895 19.7719 4.347781 31.427008 11.536091
2009-07-08 11:08:12 51°25.922 3°11.967 19.7697 4.347988 31.432157 11.396795
2009-07-08 11:09:12 51°26.07 3°12.1 19.7565 4.348922 31.443173 11.257499
2009-07-08 11:10:12 51°26.194 3°12.301 19.748 4.34913 31.45412 11.083378
2009-07-08 11:11:12 51°26.305 3°12.532 19.7343 4.348611 31.457464 10.909258
2009-07-08 11:12:12 51°26.408 3°12.774 19.7372 4.347262 31.453522 10.804786
2009-07-08 11:13:12 51°26.509 3°13.022 19.7419 4.346121 31.441979 10.66549
2009-07-08 11:14:12 51°26.59 3°13.297 19.7466 4.345083 31.430697 10.700314
2009-07-08 11:15:12 51°26.667 3°13.575 19.749 4.344045 31.418259 10.595842
2009-07-08 11:16:12 51°26.745 3°13.851 19.7466 4.342695 31.407362 10.526194
2009-07-08 11:17:12 51°26.827 3°14.124 19.7467 4.340723 31.391437 10.421721
2009-07-08 11:18:12 51°26.883 3°14.277 19.7422 4.338752 31.376669 10.421721
2009-07-08 11:19:12 51°26.903 3°14.323 19.7414 4.337299 31.368405 10.352073
2009-07-08 11:20:12 51°26.903 3°14.364 19.7356 4.336572 31.364272 10.352073
2009-07-08 11:21:12 51°26.897 3°14.402 19.7351 4.336053 31.362972 10.247601
2009-07-08 11:22:12 51°26.885 3°14.438 19.7691 4.336053 31.362394 10.073481
2009-07-08 11:23:12 51°26.868 3°14.472 19.7444 4.338959 31.362739 9.969009
2009-07-08 11:24:12 51°26.85 3°14.507 19.7361 4.33678 31.364792 9.829713
2009-07-08 11:25:12 51°26.83 3°14.541 19.7228 4.335846 31.362452 9.864537
2009-07-08 11:26:12 51°26.819 3°14.58 19.7385 4.335016 31.361529 9.899361
2009-07-08 11:27:12 51°26.831 3°14.614 19.7286 4.335534 31.359938 10.247601
2009-07-08 11:28:12 51°26.879 3°14.631 19.7276 4.334912 31.358377 10.421721
2009-07-08 11:29:12 51°26.969 3°14.606 19.7254 4.334912 31.360112 10.421721
2009-07-08 11:30:12 51°27.085 3°14.505 19.7238 4.335119 31.364102 10.526194
2009-07-08 11:31:12 51°27.216 3°14.373 19.7208 4.336261 31.373904 10.561018
2009-07-08 11:32:12 51°27.344 3°14.226 19.713 4.337714 31.389696 10.561018
2009-07-08 11:33:12 51°27.45 3°14.036 19.7059 4.339167 31.406072 10.526194
2009-07-08 11:34:12 51°27.551 3°13.85 19.6964 4.341243 31.428068 10.526194
2009-07-08 11:35:12 51°27.659 3°13.66 19.687 4.3428 31.446457 10.386897
2009-07-08 11:36:12 51°27.767 3°13.48 19.674 4.344357 31.467178 10.282425
2009-07-08 11:37:12 51°27.876 3°13.296 19.6615 4.345395 31.484294 10.177953
2009-07-08 11:38:12 51°27.986 3°13.11 19.6478 4.346225 31.500904 10.177953
2009-07-08 11:39:12 51°28.095 3°12.917 19.6389 4.347575 31.521144 10.212777
2009-07-08 11:40:12 51°28.204 3°12.73 19.6263 4.349443 31.543852 10.143129
2009-07-08 11:41:12 51°28.311 3°12.547 19.6095 4.353076 31.582621 10.352073
2009-07-08 11:42:12 51°28.42 3°12.365 19.5907 4.358992 31.643443 10.456545
2009-07-08 11:43:11 51°28.524 3°12.182 19.5704 4.365324 31.709459 10.735138
2009-07-08 11:44:12 51°28.628 3°11.996 19.5579 4.374458 31.798308 11.048554
2009-07-08 11:45:12 51°28.726 3°11.8 19.5476 4.381827 31.866429 11.187851
2009-07-08 11:46:12 51°28.822 3°11.602 19.5352 4.387432 31.919668 11.466443
2009-07-08 11:47:12 51°28.917 3°11.408 19.5202 4.393764 31.980633 11.884332
2009-07-08 11:48:12 51°29.014 3°11.216 19.5124 4.399162 32.033451 11.710211
2009-07-08 11:49:12 51°29.114 3°11.016 19.5026 4.403626 32.077513 11.814684
2009-07-08 11:50:12 51°29.218 3°10.82 19.5009 4.410477 32.139855 11.814684
2009-07-08 11:51:12 51°29.318 3°10.622 19.5007 4.417328 32.197454 12.023628
2009-07-08 11:52:13 51°29.414 3°10.429 19.5051 4.425736 32.264769 12.998701
2009-07-08 11:53:12 51°29.514 3°10.236 19.5036 4.429888 32.296211 12.998701
2009-07-08 11:54:12 51°29.619 3°10.034 19.4972 4.433417 32.326179 13.834479
2009-07-08 11:55:12 51°29.723 3°9.831 19.5012 4.436739 32.356863 14.322015
2009-07-08 11:56:12 51°29.827 3°9.624 19.4934 4.439542 32.378515 14.252367
2009-07-08 11:57:12 51°29.932 3°9.42 19.4904 4.441307 32.39832 13.660358
2009-07-08 11:58:12 51°30.036 3°9.218 19.4968 4.441826 32.403757 13.24247
2009-07-08 11:59:12 51°30.139 3°9.016 19.5029 4.441826 32.398942 13.06835
2009-07-08 12:00:12 51°30.236 3°8.805 19.489 4.441722 32.393884 12.998701
2009-07-08 12:01:12 51°30.336 3°8.593 19.4349 4.437674 32.375906 12.998701
2009-07-08 12:02:12 51°30.439 3°8.378 19.389 4.430304 32.360897 12.720109
2009-07-08 12:03:12 51°30.54 3°8.163 19.3069 4.426153 32.361928 12.30222
2009-07-08 12:04:12 51°30.64 3°7.955 19.2862 4.420133 32.370037 11.988804
2009-07-08 12:05:12 51°30.742 3°7.738 19.3197 4.419407 32.373762 11.814684
2009-07-08 12:06:12 51°30.843 3°7.523 19.3232 4.419614 32.348271 11.396795
2009-07-08 12:07:12 51°30.944 3°7.308 19.3105 4.417745 32.336001 11.187851
2009-07-08 12:08:12 51°31.048 3°7.09 19.2769 4.4165 32.338484 11.257499
2009-07-08 12:09:12 51°31.15 3°6.879 19.2245 4.411518 32.326683 11.153027
2009-07-08 12:10:12 51°31.254 3°6.665 19.1801 4.410792 32.359449 11.01373
2009-07-08 12:11:11 51°31.354 3°6.459 19.1702 4.409028 32.375892 11.153027
2009-07-08 12:12:12 51°31.457 3°6.248 19.1861 4.409858 32.385136 11.187851
2009-07-08 12:13:12 51°31.559 3°6.033 19.191 4.412453 32.392476 11.187851
2009-07-08 12:14:12 51°31.664 3°5.816 19.1493 4.413803 32.416912 10.944082
2009-07-08 12:15:12 51°31.771 3°5.599 19.1049 4.412662 32.43368 11.361971
2009-07-08 12:16:12 51°31.879 3°5.382 19.1018 4.410794 32.445724 11.501267
2009-07-08 12:17:12 51°31.987 3°5.169 19.1177 4.409963 32.437677 11.292323
2009-07-08 12:18:12 51°32.097 3°4.961 19.1576 4.410274 32.424406 11.292323
2009-07-08 12:19:11 51°32.209 3°4.756 19.1452 4.412246 32.418104 11.327147
2009-07-08 12:20:12 51°32.321 3°4.55 19.1355 4.410066 32.408102 11.118203
2009-07-08 12:21:12 51°32.427 3°4.342 18.6047 4.410378 32.428303 11.292323
2009-07-08 12:22:12 51°32.531 3°4.142 18.4517 4.429694 33.022882 10.874434
2009-07-08 12:23:11 51°32.633 3°3.951 18.424 4.423674 33.058487 11.187851
2009-07-08 12:24:12 51°32.741 3°3.747 18.4102 4.421495 33.061782 11.745035
2009-07-08 12:25:12 51°32.847 3°3.548 18.4045 4.418692 33.051006 12.1281
2009-07-08 12:26:12 51°32.952 3°3.347 18.4084 4.417654 33.046755 12.023628
2009-07-08 12:27:12 51°33.057 3°3.149 18.4082 4.417966 33.045561 12.162924
2009-07-08 12:28:12 51°33.162 3°2.949 18.3938 4.419523 33.06619 11.570915
2009-07-08 12:29:12 51°33.269 3°2.748 18.3928 4.42025 33.079245 11.431619
2009-07-08 12:30:12 51°33.376 3°2.547 18.3745 4.421392 33.088802 11.570915
2009-07-08 12:31:13 51°33.485 3°2.341 18.3527 4.422326 33.112494 11.361971
2009-07-08 12:32:13 51°33.593 3°2.142 18.327 4.423261 33.142573 11.257499
2009-07-08 12:33:12 51°33.699 3°1.944 18.3065 4.423884 33.164986 10.944082
2009-07-08 12:34:12 51°33.806 3°1.742 18.31 4.42378 33.179415 10.978906
2009-07-08 12:35:12 51°33.916 3°1.533 18.3381 4.424195 33.175246 10.804786
2009-07-08 12:36:13 51°34.023 3°1.326 18.352 4.424299 33.152546 10.700314
2009-07-08 12:37:11 51°34.124 3°1.13 18.3291 4.426167 33.170754 10.804786
2009-07-08 12:38:12 51°34.233 3°0.922 18.3019 4.426998 33.191738 10.944082
2009-07-08 12:39:12 51°34.335 3°0.724 18.2876 4.426791 33.204671 10.909258
2009-07-08 12:40:12 51°34.443 3°0.524 18.3344 4.431359 33.280746 10.83961
2009-07-08 12:41:12 51°34.574 3°0.357 18.3911 4.424195 33.14913 11.083378
2009-07-08 12:42:12 51°34.673 3°0.242 18.4194 4.42326 33.112695 10.83961
2009-07-08 12:43:12 51°34.676 3°0.189 18.4282 4.420561 33.060302 10.735138
2009-07-08 12:44:12 51°34.644 3°0.158 18.4286 4.422948 33.089781 11.187851
2009-07-08 12:45:12 51°34.619 3°0.097 18.3669 4.420976 33.054909 10.49137
2009-07-08 12:46:12 51°34.625 3°0.021 18.3687 4.424714 33.140119 10.386897
2009-07-08 12:47:12 51°34.655 2°59.95 18.3629 4.424195 33.137678 10.421721
2009-07-08 12:48:12 51°34.696 2°59.886 18.3994 4.423572 33.137548 10.595842
2009-07-08 12:49:12 51°34.748 2°59.829 18.4386 4.421392 33.084362 10.282425
2009-07-08 12:50:12 51°34.796 2°59.797 18.4566 4.420561 33.047007 10.143129
2009-07-08 12:51:12 51°34.835 2°59.751 18.4802 4.420768 33.034195 10.526194
2009-07-08 12:52:12 51°34.883 2°59.713 18.4908 4.420768 33.016504 10.317249
2009-07-08 12:53:12 51°34.94 2°59.705 18.4973 4.420352 33.006092 10.212777
2009-07-08 12:54:12 51°35.002 2°59.742 18.4893 4.420248 33.00207 10.282425
2009-07-08 12:55:12 51°35.059 2°59.808 18.4649 4.420871 33.014845 10.143129
2009-07-08 12:56:12 51°35.108 2°59.89 18.4563 4.421287 33.036004 10.177953
2009-07-08 12:57:12 51°35.137 2°60 18.4317 4.422014 33.054095 10.143129
2009-07-08 12:58:12 51°35.133 3°0.114 18.472 4.421495 33.052287 10.456545
2009-07-08 12:59:12 51°35.098 3°0.204 18.4701 4.421598 33.032285 10.317249
2009-07-08 13:00:12 51°35.057 3°0.28 18.465 4.421806 33.037812 10.282425
2009-07-08 13:01:12 51°35.016 3°0.357 18.4623 4.421183 33.031976 10.456545
2009-07-08 13:02:11 51°34.976 3°0.432 18.4415 4.421806 33.043503 10.526194
2009-07-08 13:03:12 51°34.941 3°0.507 18.3948 4.423571 33.085482 10.386897
2009-07-08 13:04:12 51°34.908 3°0.58 18.4158 4.422845 33.09145 10.212777
2009-07-08 13:05:12 51°34.876 3°0.656 18.4204 4.423467 33.084614 10.143129
2009-07-08 13:06:12 51°34.844 3°0.73 18.4042 4.425128 33.10485 10.073481
2009-07-08 13:07:12 51°34.813 3°0.807 18.388 4.425855 33.121086 10.212777
2009-07-08 13:08:12 51°34.781 3°0.885 18.3777 4.426167 33.130679 10.108305
2009-07-08 13:09:12 51°34.748 3°0.963 18.3339 4.428036 33.163493 10.143129
2009-07-08 13:10:12 51°34.716 3°1.04 18.3318 4.430216 33.225111 10.247601
2009-07-08 13:11:12 51°34.685 3°1.118 18.3667 4.428659 33.191639 10.177953
2009-07-08 13:12:12 51°34.653 3°1.194 18.3645 4.428139 33.163726 10.108305
2009-07-08 13:13:12 51°34.62 3°1.272 18.3172 4.430735 33.195658 10.108305
2009-07-08 13:14:12 51°34.589 3°1.349 18.3129 4.431462 33.230452 10.108305
2009-07-08 13:15:12 51°34.557 3°1.427 18.2951 4.432708 33.248568 10.003833
2009-07-08 13:16:12 51°34.526 3°1.504 18.335 4.431877 33.246073 10.003833
2009-07-08 13:17:12 51°34.494 3°1.581 18.3467 4.431773 33.221575 9.969009
2009-07-08 13:18:12 51°34.462 3°1.654 18.3557 4.432396 33.217228 10.038657
2009-07-08 13:19:12 51°34.425 3°1.703 18.3561 4.433226 33.221639 10.108305
2009-07-08 13:20:12 51°34.389 3°1.745 18.3734 4.433018 33.216073 10.073481
2009-07-08 13:21:12 51°34.353 3°1.789 18.3925 4.432395 33.195561 10.003833
2009-07-08 13:22:12 51°34.318 3°1.826 18.4036 4.432395 33.183466 10.003833
2009-07-08 13:23:12 51°34.282 3°1.855 18.3829 4.433226 33.187238 10.038657
2009-07-08 13:24:12 51°34.244 3°1.859 18.3729 4.433433 33.202983 10.108305
2009-07-08 13:25:12 51°34.225 3°1.871 18.3683 4.432914 33.197998 10.073481
2009-07-08 13:26:11 51°34.214 3°1.887 18.3781 4.432499 33.195157 10.317249
2009-07-08 13:27:12 51°34.211 3°1.848 18.3456 4.434991 33.222401 10.595842
2009-07-08 13:28:12 51°34.253 3°1.69 18.3363 4.436341 33.260517 10.352073
2009-07-08 13:29:12 51°34.302 3°1.446 18.2425 4.436652 33.267602 10.317249
2009-07-08 13:30:12 51°34.355 3°1.193 18.2705 4.440494 33.370997 10.282425
2009-07-08 13:31:12 51°34.409 3°0.944 18.236 4.439144 33.33269 10.177953
2009-07-08 13:32:12 51°34.462 3°0.693 18.2265 4.439975 33.364705 10.038657
2009-07-08 13:33:12 51°34.52 3°0.444 18.3037 4.439664 33.3653 10.038657
2009-07-08 13:34:12 51°34.586 3°0.329 18.2986 4.441324 33.337533 10.038657
2009-07-08 13:35:12 51°34.624 3°0.354 18.2903 4.441116 33.328739 10.003833
2009-07-08 13:36:12 51°34.649 3°0.398 18.3051 4.439663 33.329355 11.570915
2009-07-08 13:37:12 51°34.666 3°0.444 18.3807 4.442258 33.306949 10.456545
2009-07-08 13:38:12 51°34.678 3°0.488 18.3374 4.444333 33.303899 10.073481
2009-07-08 13:39:12 51°34.686 3°0.531 18.3403 4.442465 33.314449 10.317249
2009-07-08 13:40:12 51°34.695 3°0.572 18.3475 4.442569 33.307643 10.038657
2009-07-08 13:41:12 51°34.704 3°0.614 18.3684 4.442777 33.303628 9.864537
2009-07-08 13:42:12 51°34.71 3°0.655 18.3536 4.444956 33.310399 9.794888
2009-07-08 13:43:12 51°34.717 3°0.693 18.3421 4.444957 33.32575 9.829713
2009-07-08 13:44:12 51°34.727 3°0.736 18.3497 4.44423 33.326054 9.794888
2009-07-08 13:45:12 51°34.743 3°0.784 18.3502 4.446099 33.333408 10.073481
2009-07-08 13:46:12 51°34.795 3°0.807 18.3372 4.445995 33.337018 11.083378
2009-07-08 13:47:12 51°34.788 3°0.753 18.2612 4.442777 33.311943 12.197748
2009-07-08 13:48:12 51°34.69 3°0.713 18.2631 4.441636 33.383813 12.441517
2009-07-08 13:49:12 51°34.553 3°0.623 18.2973 4.440182 33.329867 12.476341
2009-07-08 13:50:12 51°34.407 3°0.516 18.2889 4.39046 32.898802 12.789757
2009-07-08 13:51:12 51°34.257 3°0.418 18.2365 4.436445 33.301048 12.580813
2009-07-08 13:52:12 51°34.106 3°0.316 18.2425 4.438418 33.354827 12.545989
2009-07-08 13:53:12 51°33.957 3°0.207 18.2501 4.443712 33.388409 12.685285
2009-07-08 13:54:12 51°33.806 3°0.108 18.2266 4.444231 33.401776 13.938951
2009-07-08 13:55:12 51°33.657 3°0.005 18.2516 4.444647 33.413634 12.754933
2009-07-08 13:56:12 51°33.504 2°59.908 18.2111 4.444958 33.409174 12.963877
2009-07-08 13:57:12 51°33.349 2°59.812 18.2458 4.445062 33.432586 12.894229
2009-07-08 13:58:12 51°33.19 2°59.72 18.2307 4.445789 33.415514 12.685285
2009-07-08 13:59:12 51°33.03 2°59.639 18.2433 4.446723 33.423371 12.30222
2009-07-08 14:00:13 51°32.869 2°59.541 18.2946 4.447553 33.417482 11.710211
2009-07-08 14:01:12 51°32.718 2°59.43 18.3437 4.44994 33.401548 11.501267
2009-07-08 14:02:13 51°32.571 2°59.301 18.3374 4.451497 33.385101 11.083378
2009-07-08 14:03:12 51°32.432 2°59.169 18.145 4.45866 33.467715 10.769962
2009-07-08 14:04:12 51°32.296 2°59.027 18.117 4.461985 33.630795 10.769962
2009-07-08 14:05:12 51°32.162 2°58.887 18.1321 4.4624 33.652501 10.630666
2009-07-08 14:06:12 51°32.028 2°58.743 18.1466 4.463542 33.65043 10.421721
2009-07-08 14:07:13 51°31.893 2°58.596 18.1517 4.465099 33.654465 10.108305
2009-07-08 14:08:12 51°31.761 2°58.457 18.1484 4.466656 33.662399 10.038657
2009-07-08 14:09:13 51°31.632 2°58.305 18.1462 4.467383 33.672431 10.038657
2009-07-08 14:10:12 51°31.509 2°58.147 18.1376 4.46811 33.682464 9.969009
2009-07-08 14:11:13 51°31.382 2°57.986 18.1343 4.468317 33.690074 9.969009
2009-07-08 14:12:12 51°31.259 2°57.83 18.1223 4.469148 33.699687 9.899361
2009-07-08 14:13:12 51°31.135 2°57.67 18.1076 4.469148 33.709458 9.969009
2009-07-08 14:14:13 51°31.007 2°57.511 18.0983 4.469148 33.719888 10.003833
2009-07-08 14:15:12 51°30.884 2°57.357 18.082 4.468837 33.727041 10.003833
2009-07-08 14:16:13 51°30.756 2°57.2 18.0898 4.469253 33.74034 9.969009
2009-07-08 14:17:12 51°30.632 2°57.041 18.0805 4.470291 33.745193 9.934185
2009-07-08 14:18:13 51°30.504 2°56.875 18.1133 4.47081 33.755457 10.038657
2009-07-08 14:19:12 51°30.379 2°56.717 18.1616 4.478388 33.777023 10.108305
2009-07-08 14:20:12 51°30.252 2°56.56 18.1737 4.482644 33.786845 10.038657
2009-07-08 14:21:12 51°30.127 2°56.4 18.1911 4.481502 33.771343 9.969009
2009-07-08 14:22:12 51°30 2°56.242 18.2122 4.481501 33.751799 10.038657
2009-07-08 14:23:13 51°29.876 2°56.078 18.1913 4.480878 33.736136 10.247601
2009-07-08 14:24:12 51°29.756 2°55.923 18.2 4.475895 33.708446 10.456545
2009-07-08 14:25:12 51°29.636 2°55.762 18.2297 4.474961 33.692121 10.83961
2009-07-08 14:26:12 51°29.514 2°55.603 18.2561 4.474753 33.663755 11.187851
2009-07-08 14:27:12 51°29.396 2°55.441 18.2623 4.477244 33.669167 11.396795
2009-07-08 14:28:12 51°29.277 2°55.28 18.2653 4.47714 33.663107 11.431619
2009-07-08 14:29:12 51°29.157 2°55.114 18.2614 4.476206 33.653301 11.222675
2009-07-08 14:30:12 51°29.038 2°54.954 18.2769 4.476932 33.656824 10.909258
2009-07-08 14:31:12 51°28.914 2°54.796 18.2852 4.477244 33.649081 10.909258
2009-07-08 14:32:13 51°28.791 2°54.63 18.2608 4.477555 33.644579 11.292323
2009-07-08 14:33:12 51°28.673 2°54.461 18.2195 4.475791 33.664713 11.77986
2009-07-08 14:34:13 51°28.552 2°54.286 18.2241 4.473196 33.66167 11.919156
2009-07-08 14:35:12 51°28.433 2°54.118 18.2201 4.472884 33.658398 11.95398
2009-07-08 14:36:12 51°28.312 2°53.946 18.2365 4.472573 33.656424 11.77986
2009-07-08 14:37:13 51°28.191 2°53.773 18.243 4.474649 33.660935 11.292323
2009-07-08 14:38:12 51°28.077 2°53.597 18.2494 4.476414 33.670606 11.257499
2009-07-08 14:39:13 51°27.961 2°53.411 18.2619 4.476933 33.671084 11.222675
2009-07-08 14:40:12 51°27.851 2°53.232 18.2645 4.477348 33.665503 11.501267
2009-07-08 14:41:13 51°27.733 2°53.046 18.2628 4.477555 33.663361 11.605739
2009-07-08 14:42:12 51°27.619 2°52.87 18.2554 4.477244 33.666573 11.501267
2009-07-08 14:43:12 51°27.507 2°52.69 18.2597 4.477348 33.670689 11.605739
2009-07-08 14:44:12 51°27.393 2°52.512 18.287 4.478801 33.676437 11.501267
2009-07-08 14:45:12 51°27.28 2°52.341 18.4087 4.479631 33.64198 11.431619
2009-07-08 14:46:12 51°27.169 2°52.172 18.4912 4.480771 33.560635 11.118203
2009-07-08 14:47:12 51°27.06 2°52 18.4889 4.482743 33.527069 11.083378
2009-07-08 14:48:12 51°26.948 2°51.83 18.4821 4.485546 33.550533 11.118203
2009-07-08 14:49:12 51°26.834 2°51.661 18.4851 4.487934 33.57823 11.501267
2009-07-08 14:50:12 51°26.72 2°51.489 18.5094 4.490322 33.595656 11.396795
2009-07-08 14:51:12 51°26.607 2°51.318 18.5188 4.491567 33.587455 11.257499
2009-07-08 14:52:13 51°26.493 2°51.145 18.5103 4.492502 33.589496 11.361971
2009-07-08 14:53:12 51°26.391 2°50.965 18.5199 4.493748 33.606346 11.640563
2009-07-08 14:54:13 51°26.286 2°50.774 18.5028 4.495097 33.608006 11.884332
2009-07-08 14:55:12 51°26.184 2°50.591 18.523 4.498627 33.651055 11.95398
2009-07-08 14:56:12 51°26.083 2°50.405 18.5006 4.497174 33.622813 11.814684
2009-07-08 14:57:12 51°25.978 2°50.22 18.5331 4.501742 33.67456 12.232572
2009-07-08 14:58:12 51°25.876 2°50.035 18.5395 4.496135 33.602566 11.605739
2009-07-08 14:59:12 51°25.79 2°49.897 18.5386 4.49655 33.607324 11.570915
2009-07-08 15:00:12 51°25.735 2°49.887 18.5153 4.495616 33.597582 11.466443
2009-07-08 15:01:13 51°25.697 2°49.903 18.5356 4.495512 33.608912 11.361971
2009-07-08 15:02:13 51°25.643 2°49.899 18.53 4.494474 33.588671 11.153027
2009-07-08 15:03:13 51°25.594 2°49.842 18.5103 4.495097 33.602868 11.153027
2009-07-08 15:04:12 51°25.554 2°49.784 18.4921 4.494474 33.615643 11.396795
2009-07-08 15:05:12 51°25.526 2°49.718 18.4835 4.493852 33.619429 11.501267
2009-07-08 15:06:13 51°25.492 2°49.635 18.4777 4.493125 33.626207 11.95398
2009-07-08 15:07:12 51°25.467 2°49.55 18.4703 4.492814 33.625529 12.093276
2009-07-08 15:08:13 51°25.456 2°49.479 18.4785 4.492087 33.622658 12.093276
2009-07-08 15:09:12 51°25.433 2°49.417 18.4634 4.491983 33.617928 12.789757
2009-07-08 15:10:13 51°25.398 2°49.353 18.4503 4.491672 33.624971 12.685285
2009-07-08 15:11:13 51°25.357 2°49.294 18.4341 4.490738 33.630019 13.24247
2009-07-08 15:12:13 51°25.317 2°49.243 18.4272 4.489388 33.6303 13.207646
2009-07-08 15:13:13 51°25.282 2°49.184 18.424 4.488558 33.627847 13.207646
2009-07-08 15:14:12 51°25.253 2°49.12 18.4137 4.487623 33.624523 13.834479
2009-07-08 15:15:13 51°25.223 2°49.057 18.4148 4.486482 33.620101 14.182719
2009-07-08 15:16:12 51°25.193 2°48.996 18.4058 4.485547 33.613553 14.356839
2009-07-08 15:17:13 51°25.153 2°48.946 18.4025 4.484405 33.609129 14.739904
2009-07-08 15:18:13 51°25.116 2°48.89 18.4031 4.483367 33.602998 14.600608
2009-07-08 15:19:13 51°25.08 2°48.83 18.4059 4.482537 33.596031 14.70508
2009-07-08 15:20:12 51°25.046 2°48.771 18.4017 4.48181 33.587359 14.914024
2009-07-08 15:21:13 51°25.01 2°48.708 18.4006 4.480876 33.582742 14.983672
2009-07-08 15:22:13 51°24.981 2°48.64 18.3956 4.479941 33.57748 15.122969
2009-07-08 15:23:13 51°24.966 2°48.56 18.402 4.479734 33.577026 14.948848
2009-07-08 15:24:12 51°24.956 2°48.469 18.3967 4.480149 33.578578 14.844376
2009-07-08 15:25:12 51°24.942 2°48.375 18.3936 4.479941 33.580056 14.774728
2009-07-08 15:26:13 51°24.926 2°48.288 18.3867 4.480668 33.588085 14.635432
2009-07-08 15:27:13 51°24.899 2°48.212 18.4003 4.480357 33.590627 14.635432
2009-07-08 15:28:12 51°24.858 2°48.156 18.395 4.481914 33.595316 14.670256
2009-07-08 15:29:13 51°24.809 2°48.11 18.3936 4.481083 33.590925 14.635432
2009-07-08 15:30:13 51°24.76 2°48.065 18.3901 4.479422 33.58021 14.635432
2009-07-08 15:31:13 51°24.712 2°48.017 18.3863 4.479422 33.580854 14.739904
2009-07-08 15:32:12 51°24.664 2°47.969 18.387 4.478903 33.57972 14.844376
2009-07-08 15:33:13 51°24.615 2°47.921 18.3909 4.479941 33.587142 14.8792
2009-07-08 15:34:12 51°24.567 2°47.873 18.3888 4.48098 33.593276 14.70508
2009-07-08 15:35:12 51°24.517 2°47.827 18.3914 4.482018 33.602631 14.739904
2009-07-08 15:36:13 51°24.478 2°47.778 18.3887 4.483575 33.615054 14.670256
2009-07-08 15:37:13 51°24.447 2°47.726 18.3866 4.484198 33.622861 14.461312
2009-07-08 15:38:13 51°24.423 2°47.655 18.3938 4.485651 33.635059 14.565784
2009-07-08 15:39:13 51°24.409 2°47.573 18.4015 4.488247 33.651678 14.565784
2009-07-08 15:40:13 51°24.414 2°47.488 18.4168 4.490738 33.667423 14.70508
2009-07-08 15:41:13 51°24.449 2°47.417 18.4243 4.49458 33.684802 14.844376
2009-07-08 15:42:13 51°24.487 2°47.394 18.4333 4.497175 33.698825 14.635432
2009-07-08 15:43:13 51°24.517 2°47.402 18.4445 4.498836 33.709529 14.147895
2009-07-08 15:44:12 51°24.566 2°47.464 18.4568 4.501847 33.724445 14.078247
2009-07-08 15:45:12 51°24.662 2°47.657 18.445 4.502885 33.726692 15.088145
2009-07-08 15:46:12 51°24.775 2°47.92 18.4003 4.495098 33.682055 15.262265
2009-07-08 15:47:12 51°24.868 2°48.203 18.397 4.486586 33.632577 15.192617
2009-07-08 15:48:12 51°24.936 2°48.407 18.3875 4.482329 33.601377 15.262265
2009-07-08 15:49:12 51°24.969 2°48.478 18.3923 4.478903 33.579076 15.157793
2009-07-08 15:50:12 51°24.98 2°48.52 18.3875 4.479318 33.578695 14.565784
2009-07-08 15:51:12 51°24.989 2°48.551 18.3811 4.477242 33.566427 14.391664
2009-07-08 15:52:13 51°24.996 2°48.574 18.4055 4.477346 33.564078 14.113071
2009-07-08 15:53:12 51°25.002 2°48.587 18.3973 4.479318 33.56968 14.113071
2009-07-08 15:54:13 51°25.006 2°48.598 18.3943 4.478903 33.572635 14.356839
2009-07-08 15:55:13 51°25.013 2°48.607 18.3956 4.478592 33.570666 14.461312
2009-07-08 15:56:12 51°25.022 2°48.617 18.3954 4.478903 33.571991 14.53096
2009-07-08 15:57:12 51°25.025 2°48.642 18.3944 4.478903 33.572635 14.635432
2009-07-08 15:58:13 51°24.967 2°48.655 18.3947 4.477554 33.564532 14.461312
2009-07-08 15:59:13 51°24.92 2°48.496 18.3928 4.477761 33.563699 15.401561
2009-07-08 16:00:13 51°24.84 2°48.272 18.3791 4.477554 33.56582 15.122969
2009-07-08 16:01:13 51°24.747 2°48.031 18.3885 4.47828 33.579003 15.053321
2009-07-08 16:02:13 51°24.651 2°47.792 18.402 4.481499 33.599565 15.088145
2009-07-08 16:03:13 51°24.54 2°47.573 18.4252 4.488143 33.643708 15.053321
2009-07-08 16:04:13 51°24.422 2°47.357 18.4558 4.496656 33.694471 15.122969
2009-07-08 16:05:13 51°24.306 2°47.14 18.4938 4.503196 33.724782 15.088145
2009-07-08 16:06:13 51°24.193 2°46.923 18.4989 4.512955 33.780744 14.914024
2009-07-08 16:07:13 51°24.079 2°46.707 18.5158 4.515758 33.798418 14.8792
2009-07-08 16:08:13 51°23.964 2°46.488 18.5298 4.520326 33.821177 15.053321
2009-07-08 16:09:13 51°23.848 2°46.267 18.5369 4.524376 33.846042 15.018497
2009-07-08 16:10:13 51°23.732 2°46.043 18.5367 4.526452 33.859553 15.053321
2009-07-08 16:11:13 51°23.616 2°45.823 18.5215 4.528217 33.876279 14.8792
2009-07-08 16:12:13 51°23.501 2°45.603 18.5374 4.52884 33.887326 14.809552
2009-07-08 16:13:13 51°23.385 2°45.378 18.5399 4.533409 33.914586 14.914024
2009-07-08 16:14:13 51°23.302 2°45.122 18.5241 4.535693 33.93437 14.983672
2009-07-08 16:15:13 51°23.244 2°44.842 18.5158 4.539535 33.976947 14.774728
2009-07-08 16:16:12 51°23.188 2°44.566 18.5014 4.540573 33.994097 14.70508
2009-07-08 16:17:13 51°23.128 2°44.281 18.5084 4.541093 34.017965 14.70508
2009-07-08 16:18:13 51°23.068 2°44.001 18.5318 4.542546 34.017143 14.461312
2009-07-08 16:19:13 51°23.006 2°43.721 18.5215 4.544623 34.033908 14.391664
2009-07-08 16:20:12 51°22.942 2°43.448 18.5244 4.546388 34.04676 14.287191
2009-07-08 16:21:12 51°22.875 2°43.176 18.5285 4.548257 34.062436 14.217543
2009-07-08 16:22:13 51°22.802 2°42.902 18.5224 4.552306 34.0951 13.904127
2009-07-08 16:23:13 51°22.733 2°42.637 18.5023 4.555006 34.122316 13.764831
2009-07-08 16:24:13 51°22.676 2°42.416 18.4898 4.556979 34.155203 13.555886
2009-07-08 16:25:13 51°22.623 2°42.24 18.4536 4.557914 34.174823 13.381766
2009-07-08 16:26:13 51°22.547 2°42.169 18.4298 4.558018 34.203202 13.277294
2009-07-08 16:27:13 51°22.44 2°42.188 18.3972 4.557707 34.226168 13.06835
2009-07-08 16:28:13 51°22.29 2°42.268 18.3814 4.557189 34.246767 12.963877
2009-07-08 16:29:13 51°22.137 2°42.426 18.3827 4.557396 34.259698 12.824581
2009-07-08 16:30:13 51°22.004 2°42.63 18.3718 4.557916 34.26078 12.859405
2009-07-08 16:31:13 51°21.873 2°42.838 18.3761 4.557397 34.264305 12.859405
2009-07-08 16:32:13 51°21.746 2°43.053 18.3862 4.557812 34.265828 12.789757
2009-07-08 16:33:13 51°21.62 2°43.272 18.415 4.557292 34.245011 13.033525
2009-07-08 16:34:13 51°21.496 2°43.493 18.4299 4.557811 34.230325 13.06835
2009-07-08 16:35:12 51°21.383 2°43.722 18.6843 0.193087 1.132037 12.824581
2009-07-08 16:36:13 51°21.269 2°43.957 18.7857 0.262672 1.565832 12.789757
2009-07-08 16:37:13 51°21.158 2°44.193 18.907 0.777189 4.967652 12.754933
2009-07-08 16:38:13 51°21.047 2°44.431 19.0112 2.087851 14.464235 12.754933
2009-07-08 16:39:12 51°20.935 2°44.666 19.1181 0.809645 5.19129 12.824581
2009-07-08 16:40:13 51°20.819 2°44.911 19.2166 0.313218 1.886407 12.824581
2009-07-08 16:41:12 51°20.715 2°45.155 19.333 2.249225 15.693439 12.824581
2009-07-08 16:42:13 51°20.609 2°45.399 19.4389 0.382713 2.333394 12.754933
2009-07-08 16:43:13 51°20.503 2°45.643 19.5416 1.724902 11.754534 12.859405
2009-07-08 16:44:12 51°20.398 2°45.88 19.6178 1.356336 9.057358 13.033525
2009-07-08 16:45:13 51°20.289 2°46.122 19.7447 1.856111 12.733315 13.033525
2009-07-08 16:46:13 51°20.185 2°46.361 19.814 0.662114 4.18765 12.998701
2009-07-08 16:47:13 51°20.078 2°46.599 19.9095 0.803669 5.154463 13.06835
2009-07-08 16:48:13 51°19.97 2°46.839 19.9855 0.191234 1.121857 13.103174
2009-07-08 16:49:13 51°19.857 2°47.079 20.0778 0.778322 4.981171 13.033525
2009-07-08 16:50:13 51°19.743 2°47.325 20.1641 1.623654 11.013965 13.312118
2009-07-08 16:51:13 51°19.638 2°47.571 20.2999 0.423075 2.598128 12.754933
2009-07-08 16:52:13 51°19.534 2°47.808 20.2966 0.47209 2.920108 13.033525
2009-07-08 16:53:13 51°19.425 2°48.043 20.4289 1.795922 12.294648 13.06835
2009-07-08 16:54:12 51°19.32 2°48.28 20.5245 2.236826 15.621482 13.103174
2009-07-08 16:55:13 51°19.211 2°48.519 20.6228 0.489082 3.033389 13.172822
2009-07-08 16:56:13 51°19.1 2°48.749 20.6558 0.811706 5.214356 13.137998
2009-07-08 16:57:12 51°18.993 2°48.978 20.7207 2.241373 15.663055 13.137998
2009-07-08 16:58:13 51°18.883 2°49.208 20.7317 2.111197 14.67237 12.963877
2009-07-08 16:59:12 51°18.775 2°49.431 20.8832 0.572501 3.589671 13.137998
2009-07-08 17:00:13 51°18.665 2°49.662 20.9349 0.334529 2.02681 13.172822
2009-07-08 17:01:13 51°18.552 2°49.895 20.9974 0.47137 2.918061 13.24247
2009-07-08 17:02:13 51°18.441 2°50.127 21.0825 0.243319 1.447989 13.312118
2009-07-08 17:03:13 51°18.33 2°50.358 21.0762 2.193018 15.300866 13.033525
2009-07-08 17:04:13 51°18.218 2°50.593 21.1725 0.733711 4.682406 13.312118
2009-07-08 17:05:14 51°18.108 2°50.832 21.2268 0.482182 2.990139 13.277294
2009-07-08 17:06:13 51°17.999 2°51.058 21.385 2.229284 15.579948 13.346942
2009-07-08 17:07:13 51°17.891 2°51.288 21.3507 0.862506 5.571866 13.41659
2009-07-08 17:08:13 51°17.779 2°51.515 21.4589 0.810985 5.214919 13.41659
2009-07-08 17:09:12 51°17.654 2°51.717 21.4812 0.316513 1.912527 13.521062
2009-07-08 17:10:12 51°17.513 2°51.905 21.5078 0.523169 3.262774 13.521062
2009-07-08 17:11:13 51°17.363 2°52.08 21.5403 1.173699 7.76558 13.59071
2009-07-08 17:12:13 51°17.194 2°52.202 21.6187 0.384052 2.348606 13.555886
2009-07-08 17:13:13 51°17.021 2°52.314 21.726 0.247025 1.472318 13.625534
2009-07-08 17:14:12 51°16.854 2°52.425 21.7925 0.323719 1.959745 13.59071
2009-07-08 17:15:13 51°16.681 2°52.54 21.8062 0.535425 3.346138 13.41659
2009-07-08 17:16:13 51°16.511 2°52.658 21.8021 0.685292 4.356137 13.312118
2009-07-08 17:17:12 51°16.342 2°52.772 21.8642 0.370152 2.25942 13.277294
2009-07-08 17:18:13 51°16.165 2°52.891 21.9503 0.296129 1.783665 13.24247
2009-07-08 17:19:13 51°15.992 2°53.01 21.9724 1.105549 7.285225 13.06835
2009-07-08 17:20:13 51°15.816 2°53.121 22.039 0.379522 2.320783 13.137998
2009-07-08 17:21:12 51°15.642 2°53.241 22.0623 0.834993 5.386998 13.137998
2009-07-08 17:22:13 51°15.471 2°53.384 22.1753 0.243525 1.451356 13.346942
2009-07-08 17:23:13 51°15.311 2°53.542 22.1737 0.27554 1.653683 13.381766
2009-07-08 17:24:12 51°15.156 2°53.704 22.3125 0.973913 6.357862 13.312118
2009-07-08 17:25:12 51°15.004 2°53.867 22.2292 1.326528 8.875857 13.346942
2009-07-08 17:26:12 51°14.871 2°54.053 22.2698 0.256804 1.535754 13.41659
2009-07-08 17:27:13 51°14.755 2°54.271 22.3639 0.30282 1.828096 13.41659
2009-07-08 17:28:13 51°14.643 2°54.487 22.4361 1.530474 10.367555 13.346942
2009-07-08 17:29:13 51°14.529 2°54.703 22.4056 1.519331 10.285119 13.346942
2009-07-08 17:30:12 51°14.421 2°54.92 22.4784 0.439654 2.716019 13.41659
2009-07-08 17:31:12 51°14.313 2°55.153 22.4899 0.400114 2.457196 13.451414
2009-07-08 17:32:13 51°14.208 2°55.328 22.5178 0.33072 2.008007 13.41659
2009-07-08 17:33:12 51°14.105 2°55.423 22.6039 0.428739 2.645862 13.41659
2009-07-08 17:34:13 51°13.99 2°55.508 22.6455 0.565189 3.551695 13.41659
2009-07-08 17:35:12 51°13.867 2°55.597 22.6598 0.393524 2.415511 13.451414
2009-07-08 17:36:16 51°13.751 2°55.723 22.6891 0.428533 2.644661 13.451414
2009-07-08 17:37:17 51°13.696 2°55.833 22.7392 0.439757 2.718551 13.486238
2009-07-08 17:38:17 51°13.67 2°55.926 22.7684 0.378904 2.320679 13.486238
2009-07-08 17:39:17 51°13.662 2°55.957 22.8304 0.468075 2.905466 13.486238